Time;durP1;ratioP1;P1;durP2;ratioP2;P2;SDS_P1;SDS_P2;PMS_P1;PMS_P2;Temp;Humidity;BMP_temperature;BMP_pressure;BME280_temperature;BME280_humidity;BME280_pressure;Samples;Min_cycle;Max_cycle;Signal;HPM_P1;HPM_P2
2022/03/29 00:02:15;;;;;;;6.47;5.73;;;15.80;70.80;;;;;;5005749;28;20518;-73
2022/03/29 00:04:45;;;;;;;7.43;6.50;;;15.80;70.70;;;;;;5012990;28;20463;-74
2022/03/29 00:07:13;;;;;;;7.37;5.73;;;15.80;70.80;;;;;;5009010;28;20453;-74
2022/03/29 00:09:41;;;;;;;8.03;7.13;;;15.80;70.80;;;;;;4993749;28;20505;-73
2022/03/29 00:12:10;;;;;;;8.20;6.63;;;15.80;70.80;;;;;;5013364;28;20874;-74
2022/03/29 00:14:38;;;;;;;5.80;5.30;;;15.80;72.30;;;;;;5010759;28;20461;-74
2022/03/29 00:17:06;;;;;;;9.30;7.93;;;15.80;71.00;;;;;;5012239;28;20429;-74
2022/03/29 00:19:34;;;;;;;7.50;6.67;;;15.80;71.00;;;;;;5013037;28;20453;-74
2022/03/29 00:22:04;;;;;;;7.50;5.63;;;15.80;70.90;;;;;;5009004;28;20518;-74
2022/03/29 00:24:32;;;;;;;8.50;6.67;;;15.80;71.00;;;;;;5000063;28;20461;-74
2022/03/29 00:27:00;;;;;;;12.30;7.73;;;15.80;70.90;;;;;;5013469;28;20938;-74
2022/03/29 00:29:28;;;;;;;9.03;7.00;;;15.80;71.00;;;;;;5012650;28;20468;-75
2022/03/29 00:31:56;;;;;;;10.90;7.33;;;15.80;71.00;;;;;;5008554;28;20442;-74
2022/03/29 00:34:24;;;;;;;8.63;7.77;;;15.80;70.90;;;;;;4997639;28;20457;-73
2022/03/29 00:36:53;;;;;;;8.10;5.20;;;15.80;71.00;;;;;;5011774;28;20433;-73
2022/03/29 00:39:22;;;;;;;6.83;6.10;;;15.80;71.10;;;;;;5006435;28;20460;-74
2022/03/29 00:41:51;;;;;;;8.30;6.83;;;15.80;71.10;;;;;;5012782;28;20523;-74
2022/03/29 00:44:19;;;;;;;7.03;5.60;;;15.80;71.10;;;;;;4992719;28;20967;-74
2022/03/29 00:46:47;;;;;;;7.70;6.00;;;15.80;71.20;;;;;;4993413;28;20561;-74
2022/03/29 00:49:15;;;;;;;6.57;5.77;;;15.80;71.20;;;;;;5012328;28;20475;-74
2022/03/29 00:51:44;;;;;;;6.67;5.70;;;15.80;71.30;;;;;;5012721;28;20880;-74
2022/03/29 00:54:13;;;;;;;5.57;5.07;;;15.80;71.40;;;;;;5011956;28;20449;-73
2022/03/29 00:56:42;;;;;;;7.30;4.87;;;15.80;71.60;;;;;;5012678;28;20429;-73
2022/03/29 00:59:11;;;;;;;7.17;4.73;;;15.80;71.70;;;;;;5012022;28;20518;-73
2022/03/29 01:01:39;;;;;;;5.20;4.70;;;15.80;71.70;;;;;;5009154;28;20911;-74
2022/03/29 01:04:08;;;;;;;5.10;4.60;;;15.80;71.70;;;;;;5011035;28;20547;-73
2022/03/29 01:06:37;;;;;;;5.47;5.00;;;15.80;71.70;;;;;;5012402;28;20437;-73
2022/03/29 01:09:05;;;;;;;8.40;5.97;;;15.70;71.60;;;;;;4993508;28;20449;-73
2022/03/29 01:11:33;;;;;;;7.73;5.93;;;15.70;71.60;;;;;;4999804;28;20448;-73
2022/03/29 01:14:04;;;;;;;6.87;5.80;;;15.80;71.50;;;;;;5012339;28;20858;-74
2022/03/29 01:19:21;;;;;;;8.90;6.53;;;15.70;71.50;;;;;;5011978;28;20456;-73
2022/03/29 01:21:57;;;;;;;8.87;7.17;;;15.70;71.20;;;;;;5010906;28;20449;-74
2022/03/29 01:24:27;;;;;;;6.73;5.77;;;15.70;71.20;;;;;;5011048;28;20464;-74
2022/03/29 01:26:58;;;;;;;5.97;5.37;;;15.70;71.40;;;;;;5010175;28;20502;-74
2022/03/29 01:29:27;;;;;;;7.53;6.73;;;15.70;71.50;;;;;;5011879;28;20803;-74
2022/03/29 01:31:56;;;;;;;7.50;6.73;;;15.70;71.50;;;;;;4996286;28;20457;-74
2022/03/29 01:34:25;;;;;;;7.60;5.53;;;15.70;71.40;;;;;;5011751;28;20511;-74
2022/03/29 01:36:54;;;;;;;9.87;6.17;;;15.70;71.60;;;;;;5010728;28;20445;-73
2022/03/29 01:39:25;;;;;;;7.23;6.00;;;15.70;71.50;;;;;;5011891;28;20848;-74
2022/03/29 01:41:53;;;;;;;6.43;5.70;;;15.70;71.60;;;;;;5011713;28;20436;-73
2022/03/29 01:44:21;;;;;;;6.33;5.50;;;15.70;71.60;;;;;;5010376;28;20710;-73
2022/03/29 01:46:50;;;;;;;8.93;6.60;;;15.70;71.70;;;;;;5007865;28;20485;-73
2022/03/29 01:49:19;;;;;;;7.60;6.10;;;15.70;71.50;;;;;;4992254;28;20457;-73
2022/03/29 01:51:47;;;;;;;6.87;5.83;;;15.70;71.60;;;;;;5005417;28;20499;-74
2022/03/29 01:54:16;;;;;;;8.00;6.07;;;15.70;71.80;;;;;;4991267;28;20437;-74
2022/03/29 01:56:45;;;;;;;8.83;7.73;;;15.70;71.60;;;;;;5005706;28;20440;-74
2022/03/29 01:59:13;;;;;;;11.10;7.30;;;15.70;71.60;;;;;;5010347;28;20452;-74
2022/03/29 02:01:41;;;;;;;8.03;6.50;;;15.70;71.60;;;;;;5010370;28;20428;-74
2022/03/29 02:04:11;;;;;;;6.00;5.40;;;15.70;71.70;;;;;;4992197;28;20509;-74
2022/03/29 02:06:39;;;;;;;6.67;5.70;;;15.70;71.80;;;;;;5010720;28;20425;-74
2022/03/29 02:09:08;;;;;;;7.47;5.43;;;15.70;71.70;;;;;;5009978;28;20487;-73
2022/03/29 02:11:40;;;;;;;8.17;6.40;;;15.70;71.80;;;;;;5011856;28;20479;-74
2022/03/29 02:14:08;;;;;;;9.00;7.60;;;15.70;73.00;;;;;;5010770;28;20576;-74
2022/03/29 02:16:37;;;;;;;9.20;7.40;;;15.70;71.60;;;;;;5010465;28;20914;-74
2022/03/29 02:19:05;;;;;;;9.13;7.03;;;15.70;71.60;;;;;;5006299;28;20433;-74
2022/03/29 02:21:33;;;;;;;7.80;6.00;;;15.70;71.60;;;;;;5011641;28;20445;-74
2022/03/29 02:24:02;;;;;;;7.10;6.40;;;15.70;71.80;;;;;;4992902;28;20513;-72
2022/03/29 02:26:30;;;;;;;9.30;7.30;;;15.70;71.80;;;;;;4991991;28;20516;-74
2022/03/29 02:28:59;;;;;;;11.37;6.63;;;15.70;71.90;;;;;;5011775;28;20495;-74
2022/03/29 02:31:27;;;;;;;14.20;8.40;;;15.60;71.80;;;;;;5003868;28;20557;-75
2022/03/29 02:33:55;;;;;;;8.70;6.00;;;15.70;71.70;;;;;;4990800;28;20438;-73
2022/03/29 02:36:23;;;;;;;8.60;7.13;;;15.60;71.60;;;;;;4991717;28;20886;-73
2022/03/29 02:38:51;;;;;;;7.13;6.10;;;15.60;71.50;;;;;;5006855;28;20532;-74
2022/03/29 02:41:19;;;;;;;7.43;6.73;;;15.60;71.80;;;;;;4991539;28;20871;-73
2022/03/29 02:43:48;;;;;;;6.30;5.57;;;15.60;71.60;;;;;;5011160;28;20511;-74
2022/03/29 02:46:17;;;;;;;9.57;7.07;;;15.60;71.80;;;;;;5002718;28;20530;-74
2022/03/29 02:48:46;;;;;;;7.30;6.60;;;15.60;71.80;;;;;;5011627;28;20441;-74
2022/03/29 02:51:14;;;;;;;8.43;7.13;;;15.60;71.80;;;;;;5010645;28;20477;-74
2022/03/29 02:53:42;;;;;;;5.80;5.20;;;15.60;71.60;;;;;;4996220;28;20458;-73
2022/03/29 02:56:10;;;;;;;9.93;6.30;;;15.60;71.80;;;;;;5018335;28;20530;-73
2022/03/29 02:58:38;;;;;;;10.47;6.63;;;15.60;71.80;;;;;;5010260;28;20846;-74
2022/03/29 03:01:06;;;;;;;6.63;5.83;;;15.60;71.90;;;;;;5009480;28;20515;-74
2022/03/29 03:03:36;;;;;;;5.80;4.97;;;15.60;71.80;;;;;;5002929;28;20469;-74
2022/03/29 03:06:04;;;;;;;7.27;5.70;;;15.60;71.90;;;;;;5006210;28;21001;-73
2022/03/29 03:08:32;;;;;;;9.20;6.77;;;15.60;71.90;;;;;;5010040;28;20458;-75
2022/03/29 03:11:00;;;;;;;7.37;6.60;;;15.60;71.90;;;;;;5007525;28;20468;-74
2022/03/29 03:13:28;;;;;;;6.83;5.93;;;15.60;71.90;;;;;;5014555;28;20441;-73
2022/03/29 03:15:57;;;;;;;9.30;7.57;;;15.60;72.00;;;;;;5013861;28;20527;-74
2022/03/29 03:18:25;;;;;;;8.53;5.83;;;15.60;71.70;;;;;;4999706;28;20445;-74
2022/03/29 03:20:54;;;;;;;10.43;8.00;;;15.60;71.80;;;;;;5014285;28;20461;-74
2022/03/29 03:23:22;;;;;;;12.77;7.37;;;15.60;71.80;;;;;;5001185;28;20841;-73
2022/03/29 03:25:51;;;;;;;9.17;7.50;;;15.60;71.70;;;;;;5013599;28;20464;-74
2022/03/29 03:28:19;;;;;;;10.63;5.67;;;15.50;71.60;;;;;;5013446;28;20421;-74
2022/03/29 03:30:47;;;;;;;8.90;6.40;;;15.50;71.80;;;;;;5005659;28;20473;-73
2022/03/29 03:33:15;;;;;;;7.23;6.50;;;15.50;71.70;;;;;;5001967;28;20815;-74
2022/03/29 03:35:43;;;;;;;9.23;6.70;;;15.50;71.80;;;;;;5013762;28;20461;-74
2022/03/29 03:38:13;;;;;;;9.87;6.30;;;15.50;71.70;;;;;;5008935;28;20476;-72
2022/03/29 03:40:42;;;;;;;8.93;6.43;;;15.50;71.70;;;;;;5013801;28;20465;-74
2022/03/29 03:43:10;;;;;;;8.00;6.20;;;15.50;71.70;;;;;;5013789;28;20507;-74
2022/03/29 03:45:38;;;;;;;10.07;7.70;;;15.50;71.80;;;;;;5006369;28;20894;-74
2022/03/29 03:48:07;;;;;;;9.90;6.60;;;15.50;71.80;;;;;;5008985;28;20437;-75
2022/03/29 03:50:35;;;;;;;7.10;6.20;;;15.50;71.90;;;;;;5013940;28;20515;-73
2022/03/29 03:53:03;;;;;;;8.93;6.70;;;15.50;72.00;;;;;;5003664;28;20461;-74
2022/03/29 03:55:33;;;;;;;9.60;6.13;;;15.50;72.00;;;;;;4996145;28;20519;-75
2022/03/29 03:58:01;;;;;;;7.33;5.13;;;15.50;71.90;;;;;;5013755;28;20433;-72
2022/03/29 04:00:29;;;;;;;6.97;6.27;;;15.50;72.00;;;;;;5007466;28;20473;-74
2022/03/29 04:02:57;;;;;;;8.33;6.90;;;15.50;71.80;;;;;;4994263;28;20485;-72
2022/03/29 04:05:27;;;;;;;8.57;6.80;;;15.50;71.90;;;;;;4993670;28;20886;-73
2022/03/29 04:07:55;;;;;;;7.37;6.40;;;15.50;71.80;;;;;;4994013;28;20469;-73
2022/03/29 04:10:23;;;;;;;6.33;5.73;;;15.50;71.70;;;;;;5011477;28;20531;-73
2022/03/29 04:12:53;;;;;;;8.70;6.67;;;15.50;71.80;;;;;;5013826;28;20468;-74
2022/03/29 04:15:21;;;;;;;7.00;6.30;;;15.50;71.90;;;;;;5012399;28;21064;-73
2022/03/29 04:17:49;;;;;;;7.30;6.47;;;15.50;71.80;;;;;;5001484;28;20469;-74
2022/03/29 04:20:17;;;;;;;7.50;5.77;;;15.40;71.80;;;;;;5000571;28;20881;-74
2022/03/29 04:22:45;;;;;;;10.30;7.03;;;15.40;71.80;;;;;;5005040;28;20465;-74
2022/03/29 04:25:13;;;;;;;5.97;5.33;;;15.40;71.90;;;;;;5008674;28;20468;-72
2022/03/29 04:27:41;;;;;;;6.30;5.70;;;15.50;72.00;;;;;;5012398;28;20436;-73
2022/03/29 04:30:12;;;;;;;10.23;6.97;;;15.40;71.90;;;;;;5005219;28;20477;-74
2022/03/29 04:32:40;;;;;;;5.77;4.80;;;15.40;71.90;;;;;;4993704;28;20470;-74
2022/03/29 04:35:09;;;;;;;6.23;5.23;;;15.40;72.00;;;;;;5006921;28;20827;-73
2022/03/29 04:37:43;;;;;;;8.40;6.03;;;15.40;72.10;;;;;;5009266;28;20850;-72
2022/03/29 04:40:13;;;;;;;7.33;6.23;;;15.40;72.10;;;;;;5012903;28;20461;-73
2022/03/29 04:42:45;;;;;;;8.17;6.10;;;15.40;71.90;;;;;;5012550;28;20955;-74
2022/03/29 04:45:16;;;;;;;7.10;5.53;;;15.40;72.10;;;;;;5006655;28;20505;-74
2022/03/29 04:47:46;;;;;;;8.23;6.27;;;15.40;71.80;;;;;;4995973;28;20437;-74
2022/03/29 04:50:16;;;;;;;7.97;5.70;;;15.40;71.80;;;;;;5012504;28;20473;-73
2022/03/29 04:52:46;;;;;;;6.40;5.30;;;15.40;71.90;;;;;;5007282;28;20530;-72
2022/03/29 04:55:15;;;;;;;5.20;4.70;;;15.40;71.80;;;;;;5012361;28;20584;-74
2022/03/29 04:57:44;;;;;;;6.37;5.37;;;15.40;72.10;;;;;;5012726;28;20468;-74
2022/03/29 05:00:16;;;;;;;5.80;5.13;;;15.40;72.10;;;;;;5009025;28;20846;-73
2022/03/29 05:02:45;;;;;;;8.43;5.60;;;15.30;72.00;;;;;;5004097;28;20491;-72
2022/03/29 05:05:14;;;;;;;9.77;6.97;;;15.30;71.90;;;;;;5011879;28;20873;-74
2022/03/29 05:07:43;;;;;;;8.50;5.83;;;15.30;72.00;;;;;;5003466;28;20499;-73
2022/03/29 05:10:13;;;;;;;7.73;6.20;;;15.30;71.80;;;;;;4992674;28;20496;-74
2022/03/29 05:12:42;;;;;;;6.17;5.57;;;15.30;71.80;;;;;;5011104;28;21034;-73
2022/03/29 05:15:11;;;;;;;12.90;5.90;;;15.40;72.00;;;;;;5010176;28;20495;-74
2022/03/29 05:17:42;;;;;;;8.00;6.33;;;15.30;71.80;;;;;;4998225;28;20519;-74
2022/03/29 05:20:11;;;;;;;8.93;6.00;;;15.30;71.80;;;;;;4992718;28;20462;-74
2022/03/29 05:22:43;;;;;;;7.90;5.87;;;15.30;72.00;;;;;;5003131;28;20982;-73
2022/03/29 05:25:12;;;;;;;9.40;6.87;;;15.30;72.00;;;;;;4992127;28;20548;-74
2022/03/29 05:27:40;;;;;;;7.60;6.37;;;15.30;71.90;;;;;;5009982;28;20437;-74
2022/03/29 05:30:09;;;;;;;8.10;6.10;;;15.30;72.00;;;;;;5010410;28;20468;-74
2022/03/29 05:32:38;;;;;;;8.93;5.87;;;15.30;71.90;;;;;;4992829;28;20549;-74
2022/03/29 05:35:09;;;;;;;7.30;6.37;;;15.30;72.00;;;;;;5001360;28;20475;-74
2022/03/29 05:37:37;;;;;;;8.20;6.20;;;15.30;72.00;;;;;;5007805;28;20450;-74
2022/03/29 05:40:07;;;;;;;7.83;5.97;;;15.30;72.10;;;;;;5011685;28;20885;-73
2022/03/29 05:42:38;;;;;;;7.23;5.90;;;15.30;72.20;;;;;;5011769;28;20479;-74
2022/03/29 05:45:07;;;;;;;12.90;8.00;;;15.30;72.10;;;;;;5011489;28;20468;-74
2022/03/29 05:50:23;;;;;;;8.40;6.30;;;15.30;72.10;;;;;;5011146;28;20469;-72
2022/03/29 05:52:52;;;;;;;8.53;6.03;;;15.30;72.00;;;;;;5006055;28;20873;-75
2022/03/29 05:55:20;;;;;;;5.93;5.33;;;15.30;72.10;;;;;;5011368;28;20962;-73
2022/03/29 05:57:49;;;;;;;7.53;5.90;;;15.30;72.20;;;;;;5012154;28;20437;-74
2022/03/29 06:00:18;;;;;;;6.83;5.13;;;15.30;72.20;;;;;;5011252;28;20467;-74
2022/03/29 06:02:46;;;;;;;7.53;5.93;;;15.20;72.20;;;;;;5009974;28;20827;-73
2022/03/29 06:05:14;;;;;;;7.47;6.50;;;15.20;72.10;;;;;;5009396;28;20843;-74
2022/03/29 06:07:44;;;;;;;9.50;7.10;;;15.20;72.10;;;;;;5007185;28;20512;-74
2022/03/29 06:10:12;;;;;;;6.87;6.17;;;15.20;72.10;;;;;;4991974;28;20505;-74
2022/03/29 06:12:44;;;;;;;7.57;5.97;;;15.20;72.30;;;;;;5010967;28;20982;-73
2022/03/29 06:15:13;;;;;;;11.23;7.43;;;15.20;72.50;;;;;;5005923;28;20520;-74
2022/03/29 06:17:41;;;;;;;5.77;5.17;;;15.20;72.40;;;;;;5009670;28;20507;-73
2022/03/29 06:20:10;;;;;;;9.40;6.00;;;15.20;72.40;;;;;;5011310;28;20461;-75
2022/03/29 06:22:42;;;;;;;8.50;6.90;;;15.20;72.40;;;;;;5009881;28;20966;-74
2022/03/29 06:25:13;;;;;;;7.47;5.87;;;15.20;72.50;;;;;;5010579;28;20477;-73
2022/03/29 06:27:42;;;;;;;5.23;4.73;;;15.20;72.60;;;;;;5010705;28;20460;-74
2022/03/29 06:30:11;;;;;;;9.23;5.27;;;15.20;72.70;;;;;;5004875;28;20485;-73
2022/03/29 06:32:46;;;;;;;8.00;6.50;;;15.20;72.60;;;;;;5008195;28;20449;-74
2022/03/29 06:35:14;;;;;;;8.23;7.00;;;15.20;72.50;;;;;;5010624;28;20475;-73
2022/03/29 06:37:42;;;;;;;5.83;5.23;;;15.20;72.60;;;;;;5010717;28;20495;-75
2022/03/29 06:40:13;;;;;;;7.23;5.47;;;15.20;72.60;;;;;;5012110;28;20535;-72
2022/03/29 06:42:41;;;;;;;5.03;4.27;;;15.20;72.70;;;;;;5015514;28;21009;-75
2022/03/29 06:45:10;;;;;;;6.70;5.33;;;15.20;72.80;;;;;;5014607;28;20468;-75
2022/03/29 06:47:39;;;;;;;6.13;5.53;;;15.20;72.70;;;;;;5012255;28;20468;-73
2022/03/29 06:50:08;;;;;;;8.00;6.13;;;15.20;72.80;;;;;;5014126;28;21043;-74
2022/03/29 06:52:37;;;;;;;8.10;5.93;;;15.20;72.70;;;;;;5008635;28;20458;-74
2022/03/29 06:55:07;;;;;;;7.23;6.17;;;15.20;72.70;;;;;;4994832;28;20480;-75
2022/03/29 06:57:37;;;;;;;8.13;6.30;;;15.10;72.70;;;;;;5003986;28;20437;-72
2022/03/29 07:00:09;;;;;;;7.90;6.57;;;15.10;72.60;;;;;;5014700;28;20491;-73
2022/03/29 07:02:37;;;;;;;9.97;7.03;;;15.20;72.70;;;;;;4999900;28;20867;-73
2022/03/29 07:05:06;;;;;;;9.47;6.23;;;15.10;72.40;;;;;;5004636;28;20480;-74
2022/03/29 07:07:35;;;;;;;8.20;6.50;;;15.10;72.40;;;;;;5013814;28;20503;-74
2022/03/29 07:12:53;;;;;;;10.20;6.53;;;15.10;72.40;;;;;;5014537;28;20444;-73
2022/03/29 07:15:23;;;;;;;9.47;6.10;;;15.10;72.60;;;;;;5006452;28;20473;-74
2022/03/29 07:17:51;;;;;;;7.10;5.93;;;15.10;72.60;;;;;;5014155;28;20439;-74
2022/03/29 07:20:20;;;;;;;6.90;5.60;;;15.10;72.70;;;;;;5014240;28;20471;-72
2022/03/29 07:22:49;;;;;;;7.87;5.83;;;15.10;72.60;;;;;;5012974;28;20974;-73
2022/03/29 07:25:19;;;;;;;7.07;6.30;;;15.10;72.80;;;;;;5013754;28;20976;-74
2022/03/29 07:27:49;;;;;;;9.67;5.87;;;15.10;72.60;;;;;;5014690;28;20417;-74
2022/03/29 07:30:18;;;;;;;9.73;5.90;;;15.10;72.60;;;;;;5007624;28;20489;-74
2022/03/29 07:32:48;;;;;;;8.07;5.97;;;15.10;72.60;;;;;;5009938;28;20515;-74
2022/03/29 07:35:18;;;;;;;5.70;4.70;;;15.10;72.70;;;;;;5013774;28;20469;-74
2022/03/29 07:37:47;;;;;;;8.13;5.83;;;15.10;72.80;;;;;;5008694;28;20442;-72
2022/03/29 07:40:18;;;;;;;7.57;6.13;;;15.10;72.80;;;;;;5012265;28;20487;-73
2022/03/29 07:42:46;;;;;;;9.53;6.40;;;15.10;72.80;;;;;;5013999;28;20503;-74
2022/03/29 07:45:19;;;;;;;7.83;5.87;;;15.10;72.90;;;;;;5012779;28;20480;-74
2022/03/29 07:47:51;;;;;;;8.93;6.10;;;15.10;72.80;;;;;;5005586;28;20822;-73
2022/03/29 07:50:39;;;;;;;7.77;5.40;;;15.10;72.70;;;;;;5012175;28;20548;-73
2022/03/29 07:53:08;;;;;;;7.97;5.13;;;15.10;72.90;;;;;;5011745;28;20456;-73
2022/03/29 07:55:36;;;;;;;10.63;8.10;;;15.10;73.00;;;;;;5012488;28;20477;-74
2022/03/29 07:58:14;;;;;;;8.83;6.37;;;15.00;72.80;;;;;;5012892;28;20448;-73
2022/03/29 08:00:44;;;;;;;11.43;6.90;;;15.00;72.70;;;;;;5010318;28;20468;-74
2022/03/29 08:03:15;;;;;;;7.07;5.77;;;15.00;72.60;;;;;;5006698;28;20465;-74
2022/03/29 08:05:47;;;;;;;8.47;5.67;;;15.00;72.70;;;;;;5009740;28;20468;-72
2022/03/29 08:08:17;;;;;;;10.07;6.43;;;15.00;72.70;;;;;;5007943;28;20455;-73
2022/03/29 08:10:46;;;;;;;7.83;6.90;;;15.00;72.80;;;;;;5011612;28;20559;-73
2022/03/29 08:13:15;;;;;;;5.57;4.77;;;15.00;72.80;;;;;;5003386;28;20441;-73
2022/03/29 08:15:47;;;;;;;5.80;5.20;;;15.00;72.90;;;;;;5008103;28;20512;-73
2022/03/29 08:18:17;;;;;;;8.13;5.73;;;15.00;73.00;;;;;;5010551;28;20425;-72
2022/03/29 08:20:45;;;;;;;14.17;7.47;;;15.00;72.70;;;;;;5012838;28;20499;-73
2022/03/29 08:23:13;;;;;;;8.60;6.67;;;15.10;72.70;;;;;;5001714;28;20473;-74
2022/03/29 08:25:43;;;;;;;7.97;5.87;;;15.00;72.70;;;;;;4993287;28;20504;-74
2022/03/29 08:28:12;;;;;;;7.50;6.40;;;15.00;72.70;;;;;;4993869;28;20945;-74
2022/03/29 08:30:41;;;;;;;8.27;7.07;;;15.00;72.70;;;;;;5011706;28;20882;-74
2022/03/29 08:33:11;;;;;;;10.20;7.70;;;15.00;72.60;;;;;;5013442;28;20453;-74
2022/03/29 08:35:39;;;;;;;6.20;5.10;;;15.00;72.40;;;;;;5012651;28;20981;-73
2022/03/29 08:38:07;;;;;;;4.80;3.90;;;15.00;72.60;;;;;;5002286;28;20452;-73
2022/03/29 08:40:56;;;;;;;7.50;6.77;;;15.10;72.90;;;;;;4993264;28;20462;-73
2022/03/29 08:43:27;;;;;;;8.50;6.50;;;15.00;73.80;;;;;;4993393;28;20478;-75
2022/03/29 08:45:56;;;;;;;7.53;6.83;;;15.00;72.60;;;;;;5003677;28;20498;-73
2022/03/29 08:48:28;;;;;;;6.53;4.07;;;15.10;72.50;;;;;;4999943;28;20433;-73
2022/03/29 08:51:00;;;;;;;6.63;5.43;;;15.10;72.70;;;;;;5010856;28;20469;-74
2022/03/29 08:53:49;;;;;;;6.37;4.73;;;15.10;72.80;;;;;;5010888;28;20515;-72
2022/03/29 08:56:17;;;;;;;7.43;5.10;;;15.10;72.90;;;;;;5011694;28;20556;-72
2022/03/29 08:58:46;;;;;;;7.23;4.80;;;15.10;73.00;;;;;;5012576;28;20444;-74
2022/03/29 09:01:14;;;;;;;6.77;6.07;;;15.10;72.80;;;;;;5012496;28;20452;-74
2022/03/29 09:03:43;;;;;;;5.57;5.07;;;15.10;72.80;;;;;;5002177;28;20555;-72
2022/03/29 09:06:12;;;;;;;7.73;5.80;;;15.10;72.70;;;;;;5011742;28;20990;-73
2022/03/29 09:08:44;;;;;;;5.20;4.37;;;15.10;72.80;;;;;;4996126;28;20820;-74
2022/03/29 09:11:13;;;;;;;8.57;6.60;;;15.10;72.80;;;;;;4993657;28;20516;-74
2022/03/29 09:13:44;;;;;;;5.87;4.13;;;15.10;72.80;;;;;;5009244;28;20471;-74
2022/03/29 09:16:29;;;;;;;7.43;5.70;;;15.10;72.80;;;;;;5012097;28;20472;-74
2022/03/29 09:18:59;;;;;;;6.70;5.30;;;15.10;72.80;;;;;;5008101;28;20837;-73
2022/03/29 09:21:28;;;;;;;5.47;4.93;;;15.10;72.80;;;;;;5011808;28;20465;-73
2022/03/29 09:24:08;;;;;;;5.50;4.30;;;15.10;72.80;;;;;;4995014;28;20461;-73
2022/03/29 09:26:39;;;;;;;5.33;4.83;;;15.10;72.90;;;;;;4992780;28;20469;-73
2022/03/29 09:29:14;;;;;;;6.37;4.83;;;15.10;72.90;;;;;;4992342;28;20418;-74
2022/03/29 09:31:45;;;;;;;5.77;5.00;;;15.10;72.90;;;;;;5001980;28;20572;-73
2022/03/29 09:34:19;;;;;;;5.73;4.63;;;15.10;73.00;;;;;;5011587;28;20876;-74
2022/03/29 09:36:49;;;;;;;4.67;4.23;;;15.10;73.00;;;;;;5012161;28;20432;-73
2022/03/29 09:39:31;;;;;;;7.17;4.37;;;15.10;73.00;;;;;;5011287;28;20941;-73
2022/03/29 09:42:00;;;;;;;6.60;4.83;;;15.10;72.90;;;;;;5012064;28;20729;-72
2022/03/29 09:44:39;;;;;;;5.37;4.87;;;15.10;73.00;;;;;;5009914;28;20464;-73
2022/03/29 09:47:09;;;;;;;5.13;4.63;;;15.10;73.00;;;;;;5006425;28;20457;-72
2022/03/29 09:49:56;;;;;;;6.23;4.73;;;15.10;73.10;;;;;;5002063;28;20500;-75
2022/03/29 09:52:26;;;;;;;10.37;4.93;;;15.10;73.10;;;;;;5005544;28;20464;-74
2022/03/29 09:55:07;;;;;;;6.53;5.00;;;15.10;73.10;;;;;;5008642;28;21003;-73
2022/03/29 09:57:36;;;;;;;5.50;4.77;;;15.10;73.10;;;;;;5012124;28;20429;-73
2022/03/29 10:00:07;;;;;;;4.90;4.10;;;15.10;73.10;;;;;;5011548;28;20519;-74
2022/03/29 10:02:44;;;;;;;4.63;4.20;;;15.10;73.10;;;;;;5003217;28;20505;-72
2022/03/29 10:05:18;;;;;;;6.60;5.03;;;15.10;73.20;;;;;;4992017;28;20831;-72
2022/03/29 10:07:51;;;;;;;4.63;3.90;;;15.10;73.20;;;;;;4992089;28;20473;-74
2022/03/29 10:10:20;;;;;;;5.10;4.60;;;15.10;73.30;;;;;;5011305;28;20457;-72
2022/03/29 10:12:48;;;;;;;5.03;4.53;;;15.10;73.20;;;;;;5011722;28;20499;-73
2022/03/29 10:15:38;;;;;;;4.67;4.27;;;15.10;73.20;;;;;;5013077;28;20565;-74
2022/03/29 10:18:07;;;;;;;4.93;4.43;;;15.00;73.10;;;;;;5023095;28;20448;-74
2022/03/29 10:20:36;;;;;;;5.33;4.20;;;15.10;73.30;;;;;;4995790;28;20507;-73
2022/03/29 10:23:07;;;;;;;5.57;5.07;;;15.10;73.20;;;;;;5004935;28;20473;-74
2022/03/29 10:25:35;;;;;;;5.17;4.67;;;15.10;73.20;;;;;;5007907;28;20495;-73
2022/03/29 10:28:05;;;;;;;6.50;5.67;;;15.10;73.20;;;;;;5014878;28;20812;-74
2022/03/29 10:30:34;;;;;;;4.67;4.27;;;15.00;73.10;;;;;;5012379;28;20986;-74
2022/03/29 10:33:19;;;;;;;5.63;4.83;;;15.10;73.30;;;;;;5011675;28;20962;-74
2022/03/29 10:36:08;;;;;;;5.20;4.70;;;15.10;73.10;;;;;;5014697;28;20973;-75
2022/03/29 10:38:58;;;;;;;8.50;6.00;;;15.10;73.40;;;;;;5013582;28;20855;-74
2022/03/29 10:41:52;;;;;;;9.23;6.57;;;15.10;72.20;;;;;;5014935;28;20544;-74
2022/03/29 10:44:21;;;;;;;6.23;5.57;;;15.10;72.10;;;;;;5014440;28;20433;-73
2022/03/29 10:46:51;;;;;;;7.30;4.90;;;15.10;72.60;;;;;;5008512;28;20508;-72
2022/03/29 10:49:23;;;;;;;6.63;4.90;;;15.10;72.60;;;;;;5014611;28;20433;-74
2022/03/29 10:51:57;;;;;;;9.50;5.63;;;15.10;72.80;;;;;;5014528;28;20433;-74
2022/03/29 10:54:31;;;;;;;6.70;4.97;;;15.10;72.80;;;;;;4999968;28;20481;-73
2022/03/29 10:57:04;;;;;;;6.40;5.17;;;15.10;72.80;;;;;;5015209;28;20434;-70
2022/03/29 10:59:33;;;;;;;8.30;5.17;;;15.10;72.90;;;;;;5014230;28;20452;-69
2022/03/29 11:02:10;;;;;;;6.03;4.67;;;15.10;72.70;;;;;;5003857;28;20859;-68
2022/03/29 11:05:06;;;;;;;7.00;5.40;;;15.10;72.90;;;;;;5013788;28;20488;-69
2022/03/29 11:07:37;;;;;;;5.80;4.80;;;15.10;72.80;;;;;;5010697;28;20473;-68
2022/03/29 11:10:15;;;;;;;4.60;4.17;;;15.10;72.80;;;;;;5014622;28;20465;-68
2022/03/29 11:12:49;;;;;;;6.40;4.97;;;15.10;73.00;;;;;;5011173;28;20519;-69
2022/03/29 11:15:48;;;;;;;11.93;7.60;;;15.10;72.90;;;;;;5012329;28;20468;-69
2022/03/29 11:18:50;;;;;;;6.90;5.83;;;15.10;71.60;;;;;;5010845;28;20438;-69
2022/03/29 11:21:41;;;;;;;6.47;5.77;;;15.00;72.20;;;;;;5008389;28;20986;-68
2022/03/29 11:24:13;;;;;;;6.43;5.13;;;15.00;72.20;;;;;;5011943;28;20465;-70
2022/03/29 11:27:01;;;;;;;10.07;5.20;;;15.00;72.50;;;;;;5012736;28;20528;-69
2022/03/29 11:29:31;;;;;;;7.60;5.57;;;15.00;72.40;;;;;;4994474;28;20461;-69
2022/03/29 11:32:01;;;;;;;5.40;4.70;;;15.10;72.60;;;;;;5002372;28;20847;-69
2022/03/29 11:34:38;;;;;;;7.43;5.37;;;15.00;72.50;;;;;;4994300;28;20469;-68
2022/03/29 11:37:07;;;;;;;6.27;5.33;;;15.10;72.60;;;;;;5010712;28;20433;-69
2022/03/29 11:39:36;;;;;;;8.20;5.97;;;15.00;72.50;;;;;;5010877;28;20890;-68
2022/03/29 11:42:05;;;;;;;7.13;5.63;;;15.10;72.60;;;;;;5010045;28;20429;-68
2022/03/29 11:44:34;;;;;;;5.80;4.80;;;15.10;72.60;;;;;;5011236;28;20885;-69
2022/03/29 11:47:02;;;;;;;6.43;5.70;;;15.10;72.60;;;;;;5002127;28;20441;-69
2022/03/29 11:49:39;;;;;;;6.20;5.40;;;15.10;72.40;;;;;;5011852;28;20953;-68
2022/03/29 11:52:12;;;;;;;8.27;5.03;;;15.10;72.60;;;;;;4999751;28;20488;-68
2022/03/29 11:54:46;;;;;;;6.00;4.83;;;15.10;72.40;;;;;;5011203;28;21261;-68
2022/03/29 11:57:19;;;;;;;7.43;4.53;;;15.10;72.50;;;;;;5004200;28;20795;-69
2022/03/29 11:59:48;;;;;;;9.10;5.27;;;15.10;72.30;;;;;;5011014;28;20982;-69
2022/03/29 12:02:23;;;;;;;8.13;6.27;;;15.10;72.30;;;;;;5012614;28;20451;-69
2022/03/29 12:04:54;;;;;;;10.73;8.30;;;15.10;72.30;;;;;;5012614;28;20460;-69
2022/03/29 12:07:37;;;;;;;16.13;11.95;;;15.10;69.80;;;;;;5007950;28;20445;-69
2022/03/29 12:10:08;;;;;;;13.90;10.67;;;15.00;68.00;;;;;;5002211;28;20218;-67
2022/03/29 12:12:36;;;;;;;13.97;10.13;;;15.00;68.40;;;;;;5012834;28;20461;-69
2022/03/29 12:15:06;;;;;;;15.00;10.53;;;15.00;68.10;;;;;;5013197;28;20966;-69
2022/03/29 12:17:34;;;;;;;16.90;12.23;;;15.10;68.80;;;;;;5004077;28;20457;-69
2022/03/29 12:20:03;;;;;;;11.37;8.93;;;15.10;68.70;;;;;;5012987;28;20484;-68
2022/03/29 12:22:31;;;;;;;10.20;8.33;;;15.10;69.30;;;;;;5007205;28;20472;-70
2022/03/29 12:24:59;;;;;;;10.97;8.70;;;15.10;69.60;;;;;;4993562;28;20838;-68
2022/03/29 12:27:30;;;;;;;11.90;8.80;;;15.10;69.40;;;;;;4993938;28;20426;-69
2022/03/29 12:30:02;;;;;;;9.93;7.17;;;15.10;69.80;;;;;;5010541;28;20550;-69
2022/03/29 12:32:30;;;;;;;11.00;8.17;;;15.10;70.10;;;;;;5004855;28;20457;-69
2022/03/29 12:35:01;;;;;;;8.90;7.80;;;15.10;70.10;;;;;;5012540;28;20842;-70
2022/03/29 12:37:29;;;;;;;8.70;6.80;;;15.10;70.00;;;;;;5007792;28;20465;-69
2022/03/29 12:40:01;;;;;;;10.33;7.80;;;15.10;70.20;;;;;;5006082;28;20468;-68
2022/03/29 12:42:33;;;;;;;8.93;7.40;;;15.10;70.20;;;;;;5012609;28;20457;-69
2022/03/29 12:45:03;;;;;;;9.20;7.40;;;15.10;70.40;;;;;;5012052;28;20468;-70
2022/03/29 12:47:32;;;;;;;13.77;7.63;;;15.10;70.40;;;;;;5003817;28;21034;-69
2022/03/29 12:50:01;;;;;;;10.80;7.20;;;15.10;70.20;;;;;;5010572;28;20974;-69
2022/03/29 12:52:30;;;;;;;11.33;7.10;;;15.10;70.90;;;;;;5010568;28;20452;-69
2022/03/29 12:55:01;;;;;;;13.37;7.83;;;15.10;70.90;;;;;;5010110;28;21032;-69
2022/03/29 12:57:37;;;;;;;8.13;6.13;;;15.10;70.30;;;;;;5008093;28;20871;-69
2022/03/29 13:00:09;;;;;;;9.70;7.60;;;15.20;70.40;;;;;;5010127;28;20476;-68
2022/03/29 13:02:39;;;;;;;9.50;7.00;;;15.10;70.10;;;;;;5008814;28;20857;-69
2022/03/29 13:05:08;;;;;;;8.50;6.43;;;15.10;70.20;;;;;;5007903;28;20563;-69
2022/03/29 13:07:41;;;;;;;9.00;8.07;;;15.10;70.30;;;;;;5007370;28;20440;-68
2022/03/29 13:10:13;;;;;;;8.77;6.73;;;15.10;70.00;;;;;;5010171;28;20476;-69
2022/03/29 13:12:59;;;;;;;7.27;6.00;;;15.10;70.30;;;;;;5009183;28;20460;-69